sensor_id;sensor_type;location;lat;lon;timestamp;P1;durP1;ratioP1;P2;durP2;ratioP2
19560;SDS011;9927;47.792;10.616;2022-09-16T03:02:00;10.68;;;9.57;;
19560;SDS011;9927;47.792;10.616;2022-09-16T03:04:28;9.52;;;8.63;;
19560;SDS011;9927;47.792;10.616;2022-09-16T03:06:55;9.13;;;8.23;;
19560;SDS011;9927;47.792;10.616;2022-09-16T03:09:23;8.95;;;8.15;;
19560;SDS011;9927;47.792;10.616;2022-09-16T03:12:03;8.98;;;8.18;;
19560;SDS011;9927;47.792;10.616;2022-09-16T03:20:33;22.42;;;10.13;;
19560;SDS011;9927;47.792;10.616;2022-09-16T03:23:46;21.38;;;10.38;;
19560;SDS011;9927;47.792;10.616;2022-09-16T03:26:27;20.05;;;10.40;;
19560;SDS011;9927;47.792;10.616;2022-09-16T03:29:04;10.75;;;9.20;;
19560;SDS011;9927;47.792;10.616;2022-09-16T03:31:58;15.50;;;9.65;;
19560;SDS011;9927;47.792;10.616;2022-09-16T03:34:29;14.73;;;8.82;;
19560;SDS011;9927;47.792;10.616;2022-09-16T03:37:02;16.33;;;9.73;;
19560;SDS011;9927;47.792;10.616;2022-09-16T03:39:33;15.63;;;9.38;;
19560;SDS011;9927;47.792;10.616;2022-09-16T03:42:02;16.63;;;9.05;;
19560;SDS011;9927;47.792;10.616;2022-09-16T03:44:32;16.08;;;9.07;;
19560;SDS011;9927;47.792;10.616;2022-09-16T03:47:03;20.17;;;9.13;;
19560;SDS011;9927;47.792;10.616;2022-09-16T03:49:31;15.20;;;8.15;;
19560;SDS011;9927;47.792;10.616;2022-09-16T03:51:59;18.60;;;9.70;;
19560;SDS011;9927;47.792;10.616;2022-09-16T03:54:26;16.20;;;8.43;;
19560;SDS011;9927;47.792;10.616;2022-09-16T03:56:54;19.17;;;8.98;;
19560;SDS011;9927;47.792;10.616;2022-09-16T03:59:21;14.07;;;8.60;;
19560;SDS011;9927;47.792;10.616;2022-09-16T04:01:48;16.67;;;9.25;;
19560;SDS011;9927;47.792;10.616;2022-09-16T04:04:15;18.90;;;9.55;;
19560;SDS011;9927;47.792;10.616;2022-09-16T04:06:42;21.80;;;9.18;;
19560;SDS011;9927;47.792;10.616;2022-09-16T04:09:10;13.15;;;9.65;;
19560;SDS011;9927;47.792;10.616;2022-09-16T04:11:39;15.18;;;8.55;;
19560;SDS011;9927;47.792;10.616;2022-09-16T04:14:06;16.20;;;9.18;;
19560;SDS011;9927;47.792;10.616;2022-09-16T04:16:34;19.80;;;9.93;;
19560;SDS011;9927;47.792;10.616;2022-09-16T04:19:01;16.00;;;9.23;;
19560;SDS011;9927;47.792;10.616;2022-09-16T04:21:29;16.75;;;9.90;;
19560;SDS011;9927;47.792;10.616;2022-09-16T04:23:57;16.75;;;9.30;;
19560;SDS011;9927;47.792;10.616;2022-09-16T04:26:24;18.35;;;9.38;;
19560;SDS011;9927;47.792;10.616;2022-09-16T04:28:51;11.82;;;8.70;;
19560;SDS011;9927;47.792;10.616;2022-09-16T04:31:20;21.42;;;8.75;;
19560;SDS011;9927;47.792;10.616;2022-09-16T04:33:47;16.33;;;8.05;;
19560;SDS011;9927;47.792;10.616;2022-09-16T04:36:16;24.58;;;9.15;;
19560;SDS011;9927;47.792;10.616;2022-09-16T04:38:45;17.70;;;8.75;;
19560;SDS011;9927;47.792;10.616;2022-09-16T04:41:14;15.15;;;8.95;;
19560;SDS011;9927;47.792;10.616;2022-09-16T04:43:44;17.55;;;8.30;;
19560;SDS011;9927;47.792;10.616;2022-09-16T04:46:12;16.10;;;8.80;;
19560;SDS011;9927;47.792;10.616;2022-09-16T04:48:39;15.73;;;9.43;;
19560;SDS011;9927;47.792;10.616;2022-09-16T04:51:08;21.45;;;9.63;;
19560;SDS011;9927;47.792;10.616;2022-09-16T04:53:37;19.55;;;8.85;;
19560;SDS011;9927;47.792;10.616;2022-09-16T04:56:07;14.68;;;7.63;;
19560;SDS011;9927;47.792;10.616;2022-09-16T04:58:35;17.50;;;8.30;;
19560;SDS011;9927;47.792;10.616;2022-09-16T05:01:06;17.65;;;8.57;;
19560;SDS011;9927;47.792;10.616;2022-09-16T05:03:42;14.00;;;8.27;;
19560;SDS011;9927;47.792;10.616;2022-09-16T05:06:11;16.05;;;8.27;;
19560;SDS011;9927;47.792;10.616;2022-09-16T05:08:46;16.40;;;8.18;;
19560;SDS011;9927;47.792;10.616;2022-09-16T05:11:19;16.40;;;7.68;;
19560;SDS011;9927;47.792;10.616;2022-09-16T05:13:47;16.67;;;8.15;;
19560;SDS011;9927;47.792;10.616;2022-09-16T05:16:15;18.10;;;9.02;;
19560;SDS011;9927;47.792;10.616;2022-09-16T05:18:44;13.90;;;7.57;;
19560;SDS011;9927;47.792;10.616;2022-09-16T05:21:16;14.30;;;7.47;;
19560;SDS011;9927;47.792;10.616;2022-09-16T05:23:45;17.98;;;8.65;;
19560;SDS011;9927;47.792;10.616;2022-09-16T05:26:14;14.15;;;7.38;;
19560;SDS011;9927;47.792;10.616;2022-09-16T05:28:43;14.88;;;7.55;;
19560;SDS011;9927;47.792;10.616;2022-09-16T05:33:39;20.58;;;8.48;;
19560;SDS011;9927;47.792;10.616;2022-09-16T05:36:07;16.35;;;8.27;;
19560;SDS011;9927;47.792;10.616;2022-09-16T05:38:36;12.90;;;7.50;;
19560;SDS011;9927;47.792;10.616;2022-09-16T05:41:04;16.58;;;8.10;;
19560;SDS011;9927;47.792;10.616;2022-09-16T05:43:32;18.70;;;9.35;;
19560;SDS011;9927;47.792;10.616;2022-09-16T05:46:00;19.23;;;9.52;;
19560;SDS011;9927;47.792;10.616;2022-09-16T05:48:28;15.65;;;7.72;;
19560;SDS011;9927;47.792;10.616;2022-09-16T05:50:57;11.48;;;6.53;;
19560;SDS011;9927;47.792;10.616;2022-09-16T05:53:29;25.13;;;8.68;;
19560;SDS011;9927;47.792;10.616;2022-09-16T05:58:32;15.07;;;7.35;;
19560;SDS011;9927;47.792;10.616;2022-09-16T06:01:01;16.40;;;7.63;;
19560;SDS011;9927;47.792;10.616;2022-09-16T06:03:32;23.63;;;9.60;;
19560;SDS011;9927;47.792;10.616;2022-09-16T06:08:34;18.80;;;8.73;;
19560;SDS011;9927;47.792;10.616;2022-09-16T06:11:03;13.88;;;7.22;;
19560;SDS011;9927;47.792;10.616;2022-09-16T06:13:31;12.57;;;7.32;;
19560;SDS011;9927;47.792;10.616;2022-09-16T06:15:59;22.80;;;9.05;;
19560;SDS011;9927;47.792;10.616;2022-09-16T06:18:27;15.75;;;7.40;;
19560;SDS011;9927;47.792;10.616;2022-09-16T06:20:56;23.10;;;8.15;;
19560;SDS011;9927;47.792;10.616;2022-09-16T06:23:23;22.02;;;8.38;;
19560;SDS011;9927;47.792;10.616;2022-09-16T06:25:58;16.85;;;7.10;;
19560;SDS011;9927;47.792;10.616;2022-09-16T06:28:26;13.63;;;6.07;;
19560;SDS011;9927;47.792;10.616;2022-09-16T06:31:04;17.38;;;6.88;;
19560;SDS011;9927;47.792;10.616;2022-09-16T06:33:33;23.58;;;7.57;;
19560;SDS011;9927;47.792;10.616;2022-09-16T06:36:04;12.80;;;6.45;;
19560;SDS011;9927;47.792;10.616;2022-09-16T06:38:33;11.13;;;5.95;;
19560;SDS011;9927;47.792;10.616;2022-09-16T06:41:01;15.82;;;6.97;;
19560;SDS011;9927;47.792;10.616;2022-09-16T06:43:31;17.85;;;7.80;;
19560;SDS011;9927;47.792;10.616;2022-09-16T06:48:26;6.85;;;6.25;;
19560;SDS011;9927;47.792;10.616;2022-09-16T06:51:01;10.68;;;6.10;;
19560;SDS011;9927;47.792;10.616;2022-09-16T06:53:31;17.25;;;7.28;;
19560;SDS011;9927;47.792;10.616;2022-09-16T06:55:59;12.25;;;5.97;;
19560;SDS011;9927;47.792;10.616;2022-09-16T06:58:32;10.60;;;5.60;;
19560;SDS011;9927;47.792;10.616;2022-09-16T07:01:10;14.52;;;5.75;;
19560;SDS011;9927;47.792;10.616;2022-09-16T07:03:41;19.27;;;7.38;;
19560;SDS011;9927;47.792;10.616;2022-09-16T07:06:10;13.07;;;5.53;;
19560;SDS011;9927;47.792;10.616;2022-09-16T07:08:38;9.18;;;5.70;;
19560;SDS011;9927;47.792;10.616;2022-09-16T07:11:09;12.75;;;6.10;;
19560;SDS011;9927;47.792;10.616;2022-09-16T07:13:39;6.70;;;6.03;;
19560;SDS011;9927;47.792;10.616;2022-09-16T07:16:09;13.98;;;6.20;;
19560;SDS011;9927;47.792;10.616;2022-09-16T07:18:40;6.25;;;5.65;;
19560;SDS011;9927;47.792;10.616;2022-09-16T07:21:12;9.68;;;5.90;;
19560;SDS011;9927;47.792;10.616;2022-09-16T07:23:41;13.07;;;6.03;;
19560;SDS011;9927;47.792;10.616;2022-09-16T07:26:11;18.75;;;7.20;;
19560;SDS011;9927;47.792;10.616;2022-09-16T07:28:41;15.48;;;6.93;;
19560;SDS011;9927;47.792;10.616;2022-09-16T07:31:10;14.73;;;6.40;;
19560;SDS011;9927;47.792;10.616;2022-09-16T07:33:42;20.60;;;8.10;;
19560;SDS011;9927;47.792;10.616;2022-09-16T07:36:12;6.78;;;5.13;;
19560;SDS011;9927;47.792;10.616;2022-09-16T07:38:41;14.68;;;6.47;;
19560;SDS011;9927;47.792;10.616;2022-09-16T07:41:12;13.25;;;6.25;;
19560;SDS011;9927;47.792;10.616;2022-09-16T07:43:52;12.05;;;5.93;;
19560;SDS011;9927;47.792;10.616;2022-09-16T07:46:27;10.20;;;6.13;;
19560;SDS011;9927;47.792;10.616;2022-09-16T07:48:56;11.95;;;6.50;;
19560;SDS011;9927;47.792;10.616;2022-09-16T07:51:25;15.38;;;6.75;;
19560;SDS011;9927;47.792;10.616;2022-09-16T07:53:54;17.20;;;7.32;;
19560;SDS011;9927;47.792;10.616;2022-09-16T07:56:25;14.43;;;6.13;;
19560;SDS011;9927;47.792;10.616;2022-09-16T07:58:55;15.77;;;6.47;;
19560;SDS011;9927;47.792;10.616;2022-09-16T08:01:23;14.82;;;6.60;;
19560;SDS011;9927;47.792;10.616;2022-09-16T08:03:51;16.48;;;7.18;;
19560;SDS011;9927;47.792;10.616;2022-09-16T08:06:20;20.77;;;7.50;;
19560;SDS011;9927;47.792;10.616;2022-09-16T08:08:52;16.88;;;6.78;;
19560;SDS011;9927;47.792;10.616;2022-09-16T08:11:28;8.80;;;5.50;;
19560;SDS011;9927;47.792;10.616;2022-09-16T08:13:58;13.95;;;6.13;;
19560;SDS011;9927;47.792;10.616;2022-09-16T08:16:26;9.32;;;6.30;;
19560;SDS011;9927;47.792;10.616;2022-09-16T08:18:55;11.98;;;5.85;;
19560;SDS011;9927;47.792;10.616;2022-09-16T08:21:24;14.45;;;6.97;;
19560;SDS011;9927;47.792;10.616;2022-09-16T08:23:53;12.57;;;6.25;;
19560;SDS011;9927;47.792;10.616;2022-09-16T08:26:21;7.78;;;6.65;;
19560;SDS011;9927;47.792;10.616;2022-09-16T08:28:49;8.73;;;5.85;;
19560;SDS011;9927;47.792;10.616;2022-09-16T08:31:33;12.70;;;6.80;;
19560;SDS011;9927;47.792;10.616;2022-09-16T08:34:01;15.13;;;6.72;;
19560;SDS011;9927;47.792;10.616;2022-09-16T08:36:28;14.15;;;7.30;;
19560;SDS011;9927;47.792;10.616;2022-09-16T08:38:55;14.70;;;7.25;;
19560;SDS011;9927;47.792;10.616;2022-09-16T08:44:05;7.07;;;6.15;;
19560;SDS011;9927;47.792;10.616;2022-09-16T08:49:26;13.80;;;7.80;;
19560;SDS011;9927;47.792;10.616;2022-09-16T08:51:55;15.68;;;8.05;;
19560;SDS011;9927;47.792;10.616;2022-09-16T08:54:26;17.52;;;7.43;;
19560;SDS011;9927;47.792;10.616;2022-09-16T08:56:57;8.48;;;6.75;;
19560;SDS011;9927;47.792;10.616;2022-09-16T08:59:29;15.80;;;7.28;;
19560;SDS011;9927;47.792;10.616;2022-09-16T09:04:47;12.40;;;6.90;;
19560;SDS011;9927;47.792;10.616;2022-09-16T09:07:27;12.85;;;6.63;;
19560;SDS011;9927;47.792;10.616;2022-09-16T09:10:21;12.13;;;7.00;;
19560;SDS011;9927;47.792;10.616;2022-09-16T09:13:07;7.82;;;6.70;;
19560;SDS011;9927;47.792;10.616;2022-09-16T09:24:50;8.02;;;7.32;;
19560;SDS011;9927;47.792;10.616;2022-09-16T09:27:26;8.25;;;6.93;;
19560;SDS011;9927;47.792;10.616;2022-09-16T09:38:22;8.18;;;7.40;;
19560;SDS011;9927;47.792;10.616;2022-09-16T09:43:45;8.02;;;7.20;;
19560;SDS011;9927;47.792;10.616;2022-09-16T09:46:38;8.63;;;7.90;;
19560;SDS011;9927;47.792;10.616;2022-09-16T09:49:12;7.18;;;6.55;;
19560;SDS011;9927;47.792;10.616;2022-09-16T09:51:59;7.38;;;6.78;;
19560;SDS011;9927;47.792;10.616;2022-09-16T09:54:32;7.47;;;6.82;;
19560;SDS011;9927;47.792;10.616;2022-09-16T09:57:02;8.20;;;6.80;;
19560;SDS011;9927;47.792;10.616;2022-09-16T09:59:37;6.95;;;6.32;;
19560;SDS011;9927;47.792;10.616;2022-09-16T10:02:17;7.70;;;7.10;;
19560;SDS011;9927;47.792;10.616;2022-09-16T10:04:47;7.75;;;7.15;;
19560;SDS011;9927;47.792;10.616;2022-09-16T10:07:18;7.75;;;7.07;;
19560;SDS011;9927;47.792;10.616;2022-09-16T10:09:53;6.25;;;5.75;;
19560;SDS011;9927;47.792;10.616;2022-09-16T10:12:27;5.68;;;5.28;;
19560;SDS011;9927;47.792;10.616;2022-09-16T10:14:56;8.50;;;6.28;;
19560;SDS011;9927;47.792;10.616;2022-09-16T10:17:23;6.30;;;5.90;;
19560;SDS011;9927;47.792;10.616;2022-09-16T10:22:26;6.70;;;6.10;;
19560;SDS011;9927;47.792;10.616;2022-09-16T10:24:57;6.88;;;6.20;;
19560;SDS011;9927;47.792;10.616;2022-09-16T10:27:29;8.05;;;6.88;;
19560;SDS011;9927;47.792;10.616;2022-09-16T10:30:05;7.50;;;6.90;;
19560;SDS011;9927;47.792;10.616;2022-09-16T10:32:44;6.93;;;6.40;;
19560;SDS011;9927;47.792;10.616;2022-09-16T10:35:30;6.85;;;6.32;;
19560;SDS011;9927;47.792;10.616;2022-09-16T10:38:05;7.40;;;6.70;;
19560;SDS011;9927;47.792;10.616;2022-09-16T10:40:53;8.13;;;7.32;;
19560;SDS011;9927;47.792;10.616;2022-09-16T10:43:23;7.20;;;6.60;;
19560;SDS011;9927;47.792;10.616;2022-09-16T10:45:52;7.50;;;6.90;;
19560;SDS011;9927;47.792;10.616;2022-09-16T10:48:22;8.45;;;7.65;;
19560;SDS011;9927;47.792;10.616;2022-09-16T10:50:59;7.90;;;7.20;;
19560;SDS011;9927;47.792;10.616;2022-09-16T10:53:37;8.75;;;7.93;;
19560;SDS011;9927;47.792;10.616;2022-09-16T10:56:17;8.88;;;8.07;;
19560;SDS011;9927;47.792;10.616;2022-09-16T10:58:48;9.57;;;8.35;;
19560;SDS011;9927;47.792;10.616;2022-09-16T11:09:31;7.78;;;6.97;;
19560;SDS011;9927;47.792;10.616;2022-09-16T11:17:47;10.48;;;7.90;;
19560;SDS011;9927;47.792;10.616;2022-09-16T11:20:44;8.90;;;8.07;;
19560;SDS011;9927;47.792;10.616;2022-09-16T11:24:07;8.18;;;7.57;;
19560;SDS011;9927;47.792;10.616;2022-09-16T11:37:37;6.90;;;6.30;;
19560;SDS011;9927;47.792;10.616;2022-09-16T11:45:43;6.10;;;5.53;;
19560;SDS011;9927;47.792;10.616;2022-09-16T11:48:38;6.15;;;5.60;;
19560;SDS011;9927;47.792;10.616;2022-09-16T11:51:27;6.50;;;5.90;;
19560;SDS011;9927;47.792;10.616;2022-09-16T11:54:15;3.80;;;2.60;;
19560;SDS011;9927;47.792;10.616;2022-09-16T11:56:51;2.20;;;2.10;;
19560;SDS011;9927;47.792;10.616;2022-09-16T11:59:23;1.98;;;1.73;;
19560;SDS011;9927;47.792;10.616;2022-09-16T12:02:17;2.00;;;1.90;;
19560;SDS011;9927;47.792;10.616;2022-09-16T12:13:25;2.20;;;2.20;;
19560;SDS011;9927;47.792;10.616;2022-09-16T12:16:04;2.67;;;2.58;;
19560;SDS011;9927;47.792;10.616;2022-09-16T12:18:54;3.63;;;3.42;;
19560;SDS011;9927;47.792;10.616;2022-09-16T12:21:26;4.15;;;3.85;;
19560;SDS011;9927;47.792;10.616;2022-09-16T12:24:05;4.20;;;4.00;;
19560;SDS011;9927;47.792;10.616;2022-09-16T12:26:40;4.47;;;4.18;;
19560;SDS011;9927;47.792;10.616;2022-09-16T12:29:18;4.20;;;4.00;;
19560;SDS011;9927;47.792;10.616;2022-09-16T12:32:04;4.40;;;4.20;;
19560;SDS011;9927;47.792;10.616;2022-09-16T12:34:43;5.15;;;4.85;;
19560;SDS011;9927;47.792;10.616;2022-09-16T12:40:02;4.82;;;4.53;;
19560;SDS011;9927;47.792;10.616;2022-09-16T12:50:15;6.65;;;6.13;;
19560;SDS011;9927;47.792;10.616;2022-09-16T13:01:05;6.97;;;6.38;;
19560;SDS011;9927;47.792;10.616;2022-09-16T13:03:40;7.45;;;6.75;;
19560;SDS011;9927;47.792;10.616;2022-09-16T13:08:46;7.47;;;6.80;;
19560;SDS011;9927;47.792;10.616;2022-09-16T13:11:18;6.70;;;6.20;;
19560;SDS011;9927;47.792;10.616;2022-09-16T13:14:19;7.40;;;6.80;;
19560;SDS011;9927;47.792;10.616;2022-09-16T13:16:53;6.75;;;6.25;;
19560;SDS011;9927;47.792;10.616;2022-09-16T13:24:47;6.00;;;5.57;;
19560;SDS011;9927;47.792;10.616;2022-09-16T13:27:28;6.75;;;6.25;;
19560;SDS011;9927;47.792;10.616;2022-09-16T13:30:09;6.15;;;5.57;;
19560;SDS011;9927;47.792;10.616;2022-09-16T13:37:50;6.53;;;6.00;;
19560;SDS011;9927;47.792;10.616;2022-09-16T13:40:26;6.97;;;6.45;;
19560;SDS011;9927;47.792;10.616;2022-09-16T13:43:02;6.88;;;6.38;;
19560;SDS011;9927;47.792;10.616;2022-09-16T13:45:43;6.72;;;6.22;;
19560;SDS011;9927;47.792;10.616;2022-09-16T13:48:12;7.50;;;6.90;;
19560;SDS011;9927;47.792;10.616;2022-09-16T13:50:49;7.18;;;6.57;;
19560;SDS011;9927;47.792;10.616;2022-09-16T13:53:42;7.25;;;6.60;;
19560;SDS011;9927;47.792;10.616;2022-09-16T14:01:33;6.95;;;6.22;;
19560;SDS011;9927;47.792;10.616;2022-09-16T14:10:13;6.68;;;6.05;;
19560;SDS011;9927;47.792;10.616;2022-09-16T14:13:03;6.50;;;5.97;;
19560;SDS011;9927;47.792;10.616;2022-09-16T14:15:43;6.60;;;6.10;;
19560;SDS011;9927;47.792;10.616;2022-09-16T14:18:19;6.97;;;6.38;;
19560;SDS011;9927;47.792;10.616;2022-09-16T14:21:02;6.60;;;5.68;;
19560;SDS011;9927;47.792;10.616;2022-09-16T14:23:32;6.50;;;6.10;;
19560;SDS011;9927;47.792;10.616;2022-09-16T14:26:09;7.30;;;6.70;;
19560;SDS011;9927;47.792;10.616;2022-09-16T14:28:41;6.78;;;6.18;;
19560;SDS011;9927;47.792;10.616;2022-09-16T14:31:11;6.68;;;6.18;;
19560;SDS011;9927;47.792;10.616;2022-09-16T14:33:42;6.80;;;6.20;;
19560;SDS011;9927;47.792;10.616;2022-09-16T14:36:26;6.40;;;5.90;;
19560;SDS011;9927;47.792;10.616;2022-09-16T14:41:30;6.78;;;6.28;;
19560;SDS011;9927;47.792;10.616;2022-09-16T14:44:09;5.95;;;5.53;;
19560;SDS011;9927;47.792;10.616;2022-09-16T14:46:41;6.35;;;5.93;;
19560;SDS011;9927;47.792;10.616;2022-09-16T14:49:12;6.68;;;5.82;;
19560;SDS011;9927;47.792;10.616;2022-09-16T14:51:54;6.15;;;5.65;;
19560;SDS011;9927;47.792;10.616;2022-09-16T14:54:24;6.40;;;5.95;;
19560;SDS011;9927;47.792;10.616;2022-09-16T14:59:40;5.95;;;5.55;;
19560;SDS011;9927;47.792;10.616;2022-09-16T15:02:16;6.63;;;6.13;;
19560;SDS011;9927;47.792;10.616;2022-09-16T15:04:45;7.30;;;6.70;;
19560;SDS011;9927;47.792;10.616;2022-09-16T15:07:18;6.95;;;6.45;;
19560;SDS011;9927;47.792;10.616;2022-09-16T15:12:24;6.50;;;6.00;;
19560;SDS011;9927;47.792;10.616;2022-09-16T15:14:55;6.70;;;6.20;;
19560;SDS011;9927;47.792;10.616;2022-09-16T15:17:24;6.97;;;6.20;;
19560;SDS011;9927;47.792;10.616;2022-09-16T15:19:56;6.68;;;6.10;;
19560;SDS011;9927;47.792;10.616;2022-09-16T15:22:25;6.40;;;5.90;;
19560;SDS011;9927;47.792;10.616;2022-09-16T15:24:54;7.93;;;7.22;;
19560;SDS011;9927;47.792;10.616;2022-09-16T15:27:24;7.60;;;6.95;;
19560;SDS011;9927;47.792;10.616;2022-09-16T15:29:55;6.78;;;6.28;;
19560;SDS011;9927;47.792;10.616;2022-09-16T15:32:26;8.60;;;7.80;;
19560;SDS011;9927;47.792;10.616;2022-09-16T15:37:53;6.75;;;6.15;;
19560;SDS011;9927;47.792;10.616;2022-09-16T15:43:09;8.10;;;7.40;;
19560;SDS011;9927;47.792;10.616;2022-09-16T15:45:58;7.95;;;7.30;;
19560;SDS011;9927;47.792;10.616;2022-09-16T15:48:30;7.82;;;7.05;;
19560;SDS011;9927;47.792;10.616;2022-09-16T15:51:02;7.40;;;6.80;;
19560;SDS011;9927;47.792;10.616;2022-09-16T15:53:37;7.28;;;6.55;;
19560;SDS011;9927;47.792;10.616;2022-09-16T15:56:18;8.52;;;7.80;;
19560;SDS011;9927;47.792;10.616;2022-09-16T15:58:49;7.65;;;7.05;;
19560;SDS011;9927;47.792;10.616;2022-09-16T16:04:08;8.00;;;7.28;;
19560;SDS011;9927;47.792;10.616;2022-09-16T16:11:55;9.10;;;7.10;;
19560;SDS011;9927;47.792;10.616;2022-09-16T16:14:31;6.40;;;5.90;;
19560;SDS011;9927;47.792;10.616;2022-09-16T16:19:40;6.22;;;5.82;;
19560;SDS011;9927;47.792;10.616;2022-09-16T16:22:09;5.13;;;4.82;;
19560;SDS011;9927;47.792;10.616;2022-09-16T16:24:38;5.68;;;5.28;;
19560;SDS011;9927;47.792;10.616;2022-09-16T16:27:05;6.03;;;5.60;;
19560;SDS011;9927;47.792;10.616;2022-09-16T16:29:34;6.05;;;5.55;;
19560;SDS011;9927;47.792;10.616;2022-09-16T16:32:08;6.03;;;5.63;;
19560;SDS011;9927;47.792;10.616;2022-09-16T16:34:38;6.93;;;6.30;;
19560;SDS011;9927;47.792;10.616;2022-09-16T16:37:07;6.75;;;6.13;;
19560;SDS011;9927;47.792;10.616;2022-09-16T16:39:53;6.70;;;6.15;;
19560;SDS011;9927;47.792;10.616;2022-09-16T16:42:21;6.47;;;5.97;;
19560;SDS011;9927;47.792;10.616;2022-09-16T16:44:49;6.28;;;5.82;;
19560;SDS011;9927;47.792;10.616;2022-09-16T16:47:16;6.07;;;5.68;;
19560;SDS011;9927;47.792;10.616;2022-09-16T16:49:44;5.80;;;5.40;;
19560;SDS011;9927;47.792;10.616;2022-09-16T16:52:17;5.90;;;5.43;;
19560;SDS011;9927;47.792;10.616;2022-09-16T16:54:44;6.50;;;6.00;;
19560;SDS011;9927;47.792;10.616;2022-09-16T16:57:12;7.03;;;6.05;;
19560;SDS011;9927;47.792;10.616;2022-09-16T16:59:39;6.25;;;5.82;;
19560;SDS011;9927;47.792;10.616;2022-09-16T17:02:07;5.95;;;5.63;;
19560;SDS011;9927;47.792;10.616;2022-09-16T17:04:37;6.13;;;5.55;;
19560;SDS011;9927;47.792;10.616;2022-09-16T17:07:04;5.60;;;5.20;;
19560;SDS011;9927;47.792;10.616;2022-09-16T17:09:51;6.85;;;6.35;;
19560;SDS011;9927;47.792;10.616;2022-09-16T17:12:19;7.88;;;7.18;;
19560;SDS011;9927;47.792;10.616;2022-09-16T17:14:46;7.35;;;6.60;;
19560;SDS011;9927;47.792;10.616;2022-09-16T17:17:13;7.70;;;6.90;;
19560;SDS011;9927;47.792;10.616;2022-09-16T17:19:40;7.15;;;6.55;;
19560;SDS011;9927;47.792;10.616;2022-09-16T17:22:08;7.93;;;7.07;;
19560;SDS011;9927;47.792;10.616;2022-09-16T17:24:35;7.50;;;6.90;;
19560;SDS011;9927;47.792;10.616;2022-09-16T17:27:02;7.82;;;7.13;;
19560;SDS011;9927;47.792;10.616;2022-09-16T17:29:30;7.97;;;7.25;;
19560;SDS011;9927;47.792;10.616;2022-09-16T17:31:57;7.05;;;6.45;;
19560;SDS011;9927;47.792;10.616;2022-09-16T17:34:28;7.20;;;6.60;;
19560;SDS011;9927;47.792;10.616;2022-09-16T17:36:55;8.02;;;7.25;;
19560;SDS011;9927;47.792;10.616;2022-09-16T17:39:24;8.40;;;7.60;;
19560;SDS011;9927;47.792;10.616;2022-09-16T17:41:51;7.70;;;7.00;;
19560;SDS011;9927;47.792;10.616;2022-09-16T17:44:22;8.07;;;7.43;;
19560;SDS011;9927;47.792;10.616;2022-09-16T17:46:50;7.55;;;6.95;;
19560;SDS011;9927;47.792;10.616;2022-09-16T17:49:21;8.05;;;7.35;;
19560;SDS011;9927;47.792;10.616;2022-09-16T17:51:49;8.10;;;7.35;;
19560;SDS011;9927;47.792;10.616;2022-09-16T17:54:18;7.65;;;6.95;;
19560;SDS011;9927;47.792;10.616;2022-09-16T17:56:45;8.10;;;7.30;;
19560;SDS011;9927;47.792;10.616;2022-09-16T17:59:14;8.02;;;7.13;;
19560;SDS011;9927;47.792;10.616;2022-09-16T18:01:43;8.65;;;7.85;;
19560;SDS011;9927;47.792;10.616;2022-09-16T18:04:11;8.63;;;6.55;;
19560;SDS011;9927;47.792;10.616;2022-09-16T18:06:40;8.15;;;7.53;;
19560;SDS011;9927;47.792;10.616;2022-09-16T18:09:08;7.45;;;6.85;;
19560;SDS011;9927;47.792;10.616;2022-09-16T18:11:36;7.72;;;7.03;;
19560;SDS011;9927;47.792;10.616;2022-09-16T18:14:05;7.55;;;6.95;;
19560;SDS011;9927;47.792;10.616;2022-09-16T18:16:33;9.27;;;8.35;;
19560;SDS011;9927;47.792;10.616;2022-09-16T18:19:01;8.07;;;7.35;;
19560;SDS011;9927;47.792;10.616;2022-09-16T18:21:29;8.43;;;7.63;;
19560;SDS011;9927;47.792;10.616;2022-09-16T18:23:57;8.52;;;7.82;;
19560;SDS011;9927;47.792;10.616;2022-09-16T18:26:29;9.05;;;8.15;;
19560;SDS011;9927;47.792;10.616;2022-09-16T18:28:59;8.57;;;7.53;;
19560;SDS011;9927;47.792;10.616;2022-09-16T18:31:37;9.10;;;8.30;;
19560;SDS011;9927;47.792;10.616;2022-09-16T18:34:06;9.30;;;8.40;;
19560;SDS011;9927;47.792;10.616;2022-09-16T18:36:34;9.45;;;8.63;;
19560;SDS011;9927;47.792;10.616;2022-09-16T18:39:03;8.98;;;8.18;;
19560;SDS011;9927;47.792;10.616;2022-09-16T18:41:36;10.25;;;9.27;;
19560;SDS011;9927;47.792;10.616;2022-09-16T18:44:05;8.93;;;8.05;;
19560;SDS011;9927;47.792;10.616;2022-09-16T18:46:36;8.15;;;7.35;;
19560;SDS011;9927;47.792;10.616;2022-09-16T18:49:05;7.90;;;7.20;;
19560;SDS011;9927;47.792;10.616;2022-09-16T18:54:09;8.63;;;7.72;;
19560;SDS011;9927;47.792;10.616;2022-09-16T18:56:38;8.98;;;8.18;;
19560;SDS011;9927;47.792;10.616;2022-09-16T18:59:11;8.05;;;7.35;;
19560;SDS011;9927;47.792;10.616;2022-09-16T19:01:50;8.35;;;7.55;;
19560;SDS011;9927;47.792;10.616;2022-09-16T19:04:21;8.18;;;7.45;;
19560;SDS011;9927;47.792;10.616;2022-09-16T19:06:50;8.45;;;7.72;;
19560;SDS011;9927;47.792;10.616;2022-09-16T19:09:20;9.15;;;8.20;;
19560;SDS011;9927;47.792;10.616;2022-09-16T19:11:49;8.95;;;8.15;;
19560;SDS011;9927;47.792;10.616;2022-09-16T19:14:18;8.82;;;8.07;;
19560;SDS011;9927;47.792;10.616;2022-09-16T19:16:49;8.75;;;7.95;;
19560;SDS011;9927;47.792;10.616;2022-09-16T19:19:17;8.95;;;8.15;;
19560;SDS011;9927;47.792;10.616;2022-09-16T19:21:45;9.25;;;8.30;;
19560;SDS011;9927;47.792;10.616;2022-09-16T19:24:14;8.75;;;7.93;;
19560;SDS011;9927;47.792;10.616;2022-09-16T19:26:43;8.45;;;7.50;;
19560;SDS011;9927;47.792;10.616;2022-09-16T19:29:12;7.93;;;7.32;;
19560;SDS011;9927;47.792;10.616;2022-09-16T19:31:41;8.50;;;7.57;;
19560;SDS011;9927;47.792;10.616;2022-09-16T19:34:11;7.63;;;7.03;;
19560;SDS011;9927;47.792;10.616;2022-09-16T19:36:40;8.38;;;7.22;;
19560;SDS011;9927;47.792;10.616;2022-09-16T19:39:08;8.52;;;7.72;;
19560;SDS011;9927;47.792;10.616;2022-09-16T19:41:37;7.72;;;7.03;;
19560;SDS011;9927;47.792;10.616;2022-09-16T19:44:08;7.60;;;6.70;;
19560;SDS011;9927;47.792;10.616;2022-09-16T19:46:37;8.15;;;7.45;;
19560;SDS011;9927;47.792;10.616;2022-09-16T19:49:06;8.23;;;7.50;;
19560;SDS011;9927;47.792;10.616;2022-09-16T19:51:34;7.97;;;7.05;;
19560;SDS011;9927;47.792;10.616;2022-09-16T19:54:01;8.25;;;7.50;;
19560;SDS011;9927;47.792;10.616;2022-09-16T19:56:30;8.00;;;7.07;;
19560;SDS011;9927;47.792;10.616;2022-09-16T19:58:59;8.50;;;7.70;;
19560;SDS011;9927;47.792;10.616;2022-09-16T20:01:31;7.18;;;6.57;;
19560;SDS011;9927;47.792;10.616;2022-09-16T20:04:01;7.70;;;7.00;;
19560;SDS011;9927;47.792;10.616;2022-09-16T20:06:31;7.82;;;6.82;;
19560;SDS011;9927;47.792;10.616;2022-09-16T20:09:03;6.78;;;6.28;;
19560;SDS011;9927;47.792;10.616;2022-09-16T20:11:33;7.15;;;6.45;;
19560;SDS011;9927;47.792;10.616;2022-09-16T20:14:03;7.63;;;6.95;;
19560;SDS011;9927;47.792;10.616;2022-09-16T20:16:35;8.05;;;7.30;;
19560;SDS011;9927;47.792;10.616;2022-09-16T20:19:04;6.68;;;6.18;;
19560;SDS011;9927;47.792;10.616;2022-09-16T20:21:36;6.43;;;5.97;;
19560;SDS011;9927;47.792;10.616;2022-09-16T20:24:04;5.90;;;5.50;;
19560;SDS011;9927;47.792;10.616;2022-09-16T20:26:33;6.18;;;5.78;;
19560;SDS011;9927;47.792;10.616;2022-09-16T20:29:02;7.50;;;5.80;;
19560;SDS011;9927;47.792;10.616;2022-09-16T20:31:30;6.15;;;5.65;;
19560;SDS011;9927;47.792;10.616;2022-09-16T20:33:59;5.97;;;5.47;;
19560;SDS011;9927;47.792;10.616;2022-09-16T20:36:28;5.90;;;5.40;;
19560;SDS011;9927;47.792;10.616;2022-09-16T20:38:59;6.18;;;5.68;;
19560;SDS011;9927;47.792;10.616;2022-09-16T20:41:27;5.40;;;5.00;;
19560;SDS011;9927;47.792;10.616;2022-09-16T20:43:56;6.10;;;5.55;;
19560;SDS011;9927;47.792;10.616;2022-09-16T20:46:28;6.25;;;5.18;;
19560;SDS011;9927;47.792;10.616;2022-09-16T20:48:59;5.68;;;5.25;;